Terminal Aerodrome Forecast
Issued by NWS Columbia, SC

Home | Current Version | Previous Version | Text Only | Print | Product List | Glossary On
Versions: 1 2 3 4 5 6 7 8 9 10 11 12 13 14 15 16 17 18 19 20 21 22 23 24 25 26 27 28 29
000
FTUS42 KCAE 021728
TAFCAE
TAF
KCAE 021728Z 0218/0318 10008KT P6SM VCSH BKN060 BKN100
     FM022200 11010KT P6SM SCT060
     FM030900 00000KT 4SM BR BKN006
     FM031400 VRB05KT P6SM SCT030=

USA.gov is the U.S. government's official web portal to all federal, state and local government web resources and services.